Belevo, Russia
Current Conditions -  °F | °C
As of 7:30 AM on Wednesday 22 Oct 2014 (Local Time) from UNEE Reporting Station
Snow Showers Snow Showers  
Wind Chill: 15°   Ceiling: 900
Heat Index: 27°   Visibility: 1.5mi
Dew Point: 21°   Wind: 13mph
Humidity: 80%   Direction: 200°SSW
Pressure: 30.12"   Gusts: NA
Location:  54.42°N, 86.3°E
Report Text: UNEE 220030Z 20006MPS 2400 -SHSN OVC009CB M03/M06 Q1020 NOSIGRMK QFE742 23CLRD60
Loading
Personal Weather Stations






























Interactive Weather Map
Tropical Storm Tracking
New forecast layout! Learn more

10-Day Weather Forecast

Advertisements
Track Severe Weather on mobile